createdAt,value
2022-11-28T00:01:23.258Z,99.90
2022-11-28T00:03:51.382Z,99.90
2022-11-28T00:06:19.844Z,99.90
2022-11-28T00:08:48.031Z,99.90
2022-11-28T00:11:16.819Z,1.00
2022-11-28T00:13:44.979Z,99.90
2022-11-28T00:16:15.380Z,1.00
2022-11-28T00:18:44.913Z,1.00
2022-11-28T00:21:13.980Z,1.00
2022-11-28T00:23:42.193Z,1.00
2022-11-28T00:26:11.429Z,1.00
2022-11-28T00:28:39.533Z,1.00
2022-11-28T00:31:07.638Z,1.00
2022-11-28T00:33:35.782Z,1.00
2022-11-28T00:36:06.143Z,1.00
2022-11-28T00:38:34.292Z,1.00
2022-11-28T00:41:02.543Z,1.00
2022-11-28T00:43:30.871Z,11.70
2022-11-28T00:45:58.956Z,1.00
2022-11-28T00:48:27.178Z,1.00
2022-11-28T00:50:55.422Z,1.00
2022-11-28T00:53:24.859Z,99.90
2022-11-28T00:55:52.959Z,99.90
2022-11-28T00:58:21.183Z,7.20
2022-11-28T01:00:49.251Z,86.00
2022-11-28T01:03:17.346Z,1.00
2022-11-28T01:05:45.434Z,1.00
2022-11-28T01:08:13.469Z,1.00
2022-11-28T01:10:43.047Z,6.50
2022-11-28T01:13:11.179Z,13.10
2022-11-28T01:15:43.717Z,1.00
2022-11-28T01:18:11.807Z,1.00
2022-11-28T01:20:39.853Z,1.00
2022-11-28T01:23:07.913Z,1.00
2022-11-28T01:25:36.044Z,1.00
2022-11-28T01:28:05.846Z,1.00
2022-11-28T01:30:34.781Z,1.00
2022-11-28T01:33:02.829Z,1.00
2022-11-28T01:35:30.849Z,1.00
2022-11-28T01:37:58.918Z,1.00
2022-11-28T01:40:26.961Z,1.00
2022-11-28T01:42:55.092Z,9.10
2022-11-28T01:45:25.134Z,13.40
2022-11-28T01:47:54.273Z,1.00
2022-11-28T01:50:22.481Z,1.00
2022-11-28T01:52:52.780Z,6.10
2022-11-28T01:55:22.670Z,34.10
2022-11-28T01:57:50.808Z,98.10
2022-11-28T02:00:20.393Z,86.90
2022-11-28T02:02:51.013Z,99.90
2022-11-28T02:05:20.074Z,99.90
2022-11-28T02:07:48.380Z,1.00
2022-11-28T02:10:17.985Z,98.80
2022-11-28T02:12:56.873Z,99.90
2022-11-28T02:15:41.706Z,99.90
2022-11-28T02:18:18.681Z,99.90
2022-11-28T02:21:16.859Z,40.60
2022-11-28T02:24:06.064Z,86.40
2022-11-28T02:27:02.085Z,99.90
2022-11-28T02:29:59.013Z,99.10
2022-11-28T02:32:35.715Z,16.60
2022-11-28T02:35:07.499Z,1.00
2022-11-28T02:37:37.804Z,1.00
2022-11-28T02:40:09.921Z,1.00
2022-11-28T02:42:42.336Z,1.00
2022-11-28T02:45:12.131Z,1.00
2022-11-28T02:47:43.682Z,10.70
2022-11-28T02:50:13.123Z,1.00
2022-11-28T02:52:42.247Z,1.00
2022-11-28T02:55:10.351Z,1.00
2022-11-28T02:57:38.763Z,1.00
2022-11-28T03:00:25.633Z,1.90
2022-11-28T03:03:06.785Z,29.60
2022-11-28T03:05:36.955Z,86.70
2022-11-28T03:08:07.392Z,99.90
2022-11-28T03:10:37.649Z,99.90
2022-11-28T03:13:08.911Z,94.50
2022-11-28T03:15:40.476Z,99.90
2022-11-28T03:18:12.125Z,48.20
2022-11-28T03:20:45.524Z,99.90
2022-11-28T03:23:15.935Z,99.90
2022-11-28T03:25:50.608Z,99.90
2022-11-28T03:28:21.361Z,37.70
2022-11-28T03:30:50.726Z,20.60
2022-11-28T03:33:21.309Z,11.20
2022-11-28T03:35:51.711Z,8.20
2022-11-28T03:38:21.732Z,96.00
2022-11-28T03:40:52.847Z,99.90
2022-11-28T03:43:21.927Z,54.80
2022-11-28T03:45:51.316Z,99.90
2022-11-28T03:48:22.993Z,99.90
2022-11-28T03:50:54.586Z,57.30
2022-11-28T03:53:26.188Z,29.50
2022-11-28T03:55:56.392Z,1.00
2022-11-28T03:58:26.393Z,1.00
2022-11-28T04:00:58.661Z,35.50
2022-11-28T04:03:38.415Z,1.00
2022-11-28T04:06:08.356Z,1.00
2022-11-28T04:08:39.761Z,1.00
2022-11-28T04:11:08.975Z,1.00
2022-11-28T04:13:38.406Z,1.00
2022-11-28T04:16:08.808Z,1.00
2022-11-28T04:18:41.981Z,1.00
2022-11-28T04:21:11.709Z,13.90
2022-11-28T04:23:40.089Z,1.00
2022-11-28T04:26:11.491Z,10.80
2022-11-28T04:28:39.545Z,1.00
2022-11-28T04:31:07.889Z,1.00
2022-11-28T04:33:39.291Z,1.00
2022-11-28T04:36:08.371Z,1.00
2022-11-28T04:38:36.457Z,1.00
2022-11-28T04:41:06.710Z,1.00
2022-11-28T04:43:36.625Z,1.00
2022-11-28T04:46:07.092Z,1.00
2022-11-28T04:48:35.237Z,1.00
2022-11-28T04:51:08.921Z,1.00
2022-11-28T04:53:38.118Z,1.00
2022-11-28T04:56:07.889Z,1.00
2022-11-28T04:58:36.668Z,1.00
2022-11-28T05:01:06.107Z,1.00
2022-11-28T05:03:35.964Z,1.00
2022-11-28T05:06:08.831Z,1.00
2022-11-28T05:08:36.896Z,1.00
2022-11-28T05:11:04.963Z,1.00
2022-11-28T05:13:33.064Z,1.00
2022-11-28T05:16:01.632Z,1.00
2022-11-28T05:18:29.718Z,1.00
2022-11-28T05:20:59.671Z,1.00
2022-11-28T05:23:29.095Z,1.00
2022-11-28T05:25:57.160Z,1.00
2022-11-28T05:28:25.197Z,1.00
2022-11-28T05:30:58.380Z,1.00
2022-11-28T05:33:26.467Z,1.00
2022-11-28T05:35:54.499Z,1.00
2022-11-28T05:38:22.546Z,1.00
2022-11-28T05:40:51.963Z,1.00
2022-11-28T05:43:20.101Z,1.00
2022-11-28T05:45:48.230Z,1.00
2022-11-28T05:48:16.340Z,1.00
2022-11-28T05:50:44.365Z,1.00
2022-11-28T05:53:12.491Z,1.00
2022-11-28T05:55:40.724Z,1.00
2022-11-28T05:58:10.264Z,1.00
2022-11-28T06:00:38.355Z,1.00
2022-11-28T06:03:06.621Z,1.00
2022-11-28T06:05:42.574Z,1.00
2022-11-28T06:08:11.453Z,1.00
2022-11-28T06:10:39.561Z,1.00
2022-11-28T06:13:09.005Z,1.00
2022-11-28T06:15:38.521Z,1.00
2022-11-28T06:18:06.832Z,1.00
2022-11-28T06:20:36.073Z,1.00
2022-11-28T06:23:04.338Z,1.00
2022-11-28T06:25:32.366Z,99.90
2022-11-28T06:28:00.562Z,1.00
2022-11-28T06:30:30.003Z,1.00
2022-11-28T06:32:58.044Z,1.00
2022-11-28T06:35:26.094Z,1.00
2022-11-28T06:37:54.210Z,1.00
2022-11-28T06:40:22.808Z,1.00
2022-11-28T06:42:51.197Z,1.00
2022-11-28T06:45:19.463Z,1.00
2022-11-28T06:47:49.498Z,1.00
2022-11-28T06:50:17.741Z,1.00
2022-11-28T06:52:46.346Z,1.00
2022-11-28T06:55:14.424Z,1.00
2022-11-28T06:57:42.503Z,1.00
2022-11-28T07:00:11.934Z,1.00
2022-11-28T07:02:40.170Z,1.00
2022-11-28T07:05:10.332Z,1.00
2022-11-28T07:07:52.768Z,1.00
2022-11-28T07:10:22.198Z,1.00
2022-11-28T07:12:54.790Z,1.00
2022-11-28T07:15:22.945Z,1.00
2022-11-28T07:17:51.156Z,1.00
2022-11-28T07:20:20.550Z,1.00
2022-11-28T07:22:49.221Z,1.00
2022-11-28T07:25:17.306Z,1.00
2022-11-28T07:27:45.384Z,1.00
2022-11-28T07:30:13.844Z,1.00
2022-11-28T07:32:42.004Z,99.90
2022-11-28T07:35:10.606Z,99.90
2022-11-28T07:37:40.096Z,99.90
2022-11-28T07:40:09.102Z,99.90
2022-11-28T07:42:37.360Z,99.90
2022-11-28T07:45:06.002Z,99.90
2022-11-28T07:47:34.743Z,99.90
2022-11-28T07:50:02.814Z,99.90
2022-11-28T07:52:30.939Z,99.90
2022-11-28T07:55:00.408Z,99.90
2022-11-28T07:57:28.465Z,99.90
2022-11-28T07:59:56.522Z,99.90
2022-11-28T08:02:24.675Z,99.90
2022-11-28T08:04:55.279Z,99.90
2022-11-28T08:07:23.735Z,99.90
2022-11-28T08:09:51.822Z,1.00
2022-11-28T08:12:21.346Z,1.00
2022-11-28T08:14:49.524Z,20.90
2022-11-28T08:17:17.817Z,99.90
2022-11-28T08:19:45.891Z,1.00
2022-11-28T08:22:13.949Z,1.00
2022-11-28T08:24:42.506Z,99.90
2022-11-28T08:27:10.705Z,99.90
2022-11-28T08:29:40.430Z,99.90
2022-11-28T08:32:09.010Z,99.90
2022-11-28T08:34:37.094Z,99.90
2022-11-28T08:37:05.339Z,1.00
2022-11-28T08:39:34.092Z,1.00
2022-11-28T08:42:02.229Z,99.90
2022-11-28T08:44:30.744Z,1.00
2022-11-28T08:47:00.650Z,1.00
2022-11-28T08:49:28.867Z,1.00
2022-11-28T08:51:56.986Z,1.00
2022-11-28T08:54:25.038Z,99.90
2022-11-28T08:56:53.056Z,99.90
2022-11-28T08:59:21.333Z,99.90
2022-11-28T09:01:49.494Z,99.90
2022-11-28T09:04:19.095Z,99.90
2022-11-28T09:06:47.381Z,99.90
2022-11-28T09:09:15.548Z,99.90
2022-11-28T09:11:43.641Z,1.00
2022-11-28T09:14:11.804Z,1.00
2022-11-28T09:16:40.073Z,1.00
2022-11-28T09:19:10.703Z,1.00
2022-11-28T09:21:40.783Z,99.90
2022-11-28T09:24:09.982Z,99.90
2022-11-28T09:26:38.109Z,99.90
2022-11-28T09:29:06.153Z,87.80
2022-11-28T09:31:34.387Z,99.90
2022-11-28T09:34:04.139Z,99.90
2022-11-28T09:36:33.536Z,99.90
2022-11-28T09:39:03.005Z,99.90
2022-11-28T09:41:43.866Z,99.90
2022-11-28T09:44:17.065Z,1.00
2022-11-28T09:46:45.124Z,1.00
2022-11-28T09:49:20.687Z,1.00
2022-11-28T09:51:51.097Z,99.90
2022-11-28T09:54:22.465Z,99.90
2022-11-28T09:56:51.028Z,99.90
2022-11-28T09:59:22.337Z,99.90
2022-11-28T10:01:53.690Z,99.90
2022-11-28T10:04:24.775Z,99.90
2022-11-28T10:06:55.741Z,99.90
2022-11-28T10:09:32.290Z,99.90
2022-11-28T10:12:09.483Z,99.90
2022-11-28T10:14:58.630Z,1.00
2022-11-28T10:17:34.259Z,1.00
2022-11-28T10:20:04.152Z,1.00
2022-11-28T10:22:36.610Z,99.90
2022-11-28T10:25:11.308Z,99.90
2022-11-28T10:27:39.395Z,99.90
2022-11-28T10:30:09.565Z,99.90
2022-11-28T10:32:39.235Z,1.00
2022-11-28T10:35:08.209Z,99.90
2022-11-28T10:37:37.287Z,99.90
2022-11-28T10:40:17.454Z,99.90
2022-11-28T10:42:47.610Z,99.90
2022-11-28T10:45:19.397Z,99.90
2022-11-28T10:51:14.336Z,99.90
2022-11-28T10:53:45.496Z,40.80
2022-11-28T10:56:20.414Z,1.00
2022-11-28T10:58:52.485Z,1.00
2022-11-28T11:01:20.651Z,1.00
2022-11-28T11:03:48.769Z,1.00
2022-11-28T11:06:16.845Z,1.00
2022-11-28T11:08:46.129Z,1.00
2022-11-28T11:11:21.777Z,1.00
2022-11-28T11:14:01.488Z,99.90
2022-11-28T11:16:47.610Z,1.00
2022-11-28T11:19:25.056Z,1.00
2022-11-28T11:22:03.995Z,1.00
2022-11-28T11:24:32.219Z,99.90
2022-11-28T11:27:09.200Z,99.90
2022-11-28T11:29:38.226Z,99.90
2022-11-28T11:32:07.158Z,99.90
2022-11-28T11:34:38.430Z,99.90
2022-11-28T11:37:20.504Z,99.90
2022-11-28T11:39:49.981Z,99.90
2022-11-28T11:42:22.753Z,99.90
2022-11-28T11:44:51.099Z,99.90
2022-11-28T11:47:19.243Z,99.90
2022-11-28T11:49:48.477Z,99.90
2022-11-28T11:52:23.986Z,99.90
2022-11-28T11:54:57.932Z,99.90
2022-11-28T11:57:33.581Z,99.90
2022-11-28T12:00:03.807Z,99.90
2022-11-28T12:02:33.590Z,99.90
2022-11-28T12:05:04.237Z,99.90
2022-11-28T12:07:34.892Z,99.90
2022-11-28T12:10:04.717Z,99.90
2022-11-28T12:12:36.326Z,99.90
2022-11-28T12:15:04.633Z,99.90
2022-11-28T12:17:48.883Z,99.90
2022-11-28T12:20:44.171Z,99.90
2022-11-28T12:23:26.989Z,99.90
2022-11-28T12:25:56.763Z,99.90
2022-11-28T12:28:32.812Z,99.90
2022-11-28T12:31:05.994Z,99.90
2022-11-28T12:33:40.733Z,99.90
2022-11-28T12:36:12.371Z,99.90
2022-11-28T12:38:50.509Z,99.90
2022-11-28T12:41:32.347Z,99.90
2022-11-28T12:44:04.813Z,99.90
2022-11-28T12:46:37.171Z,99.90
2022-11-28T12:49:14.285Z,99.90
2022-11-28T12:51:49.469Z,99.90
2022-11-28T12:54:44.624Z,99.90
2022-11-28T12:57:15.279Z,99.90
2022-11-28T12:59:47.755Z,99.90
2022-11-28T13:02:29.094Z,99.90
2022-11-28T13:05:05.256Z,99.90
2022-11-28T13:07:37.860Z,99.90
2022-11-28T13:10:09.578Z,99.90
2022-11-28T13:12:45.794Z,99.90
2022-11-28T13:15:19.001Z,99.90
2022-11-28T13:17:49.641Z,99.90
2022-11-28T13:20:21.141Z,99.90
2022-11-28T13:22:55.018Z,99.90
2022-11-28T13:25:26.076Z,99.90
2022-11-28T13:27:57.328Z,99.90
2022-11-28T13:30:27.560Z,99.90
2022-11-28T13:32:58.965Z,99.90
2022-11-28T13:35:27.844Z,99.90
2022-11-28T13:40:48.939Z,99.90
2022-11-28T13:43:19.215Z,99.90
2022-11-28T13:45:48.677Z,99.90
2022-11-28T13:49:14.545Z,99.90
2022-11-28T13:51:43.347Z,99.90
2022-11-28T13:54:45.906Z,99.90
2022-11-28T13:57:21.960Z,99.90
2022-11-28T14:00:04.136Z,99.90
2022-11-28T14:02:41.867Z,99.90
2022-11-28T14:05:26.101Z,99.90
2022-11-28T14:07:56.000Z,99.90
2022-11-28T14:10:50.931Z,99.90
2022-11-28T14:13:38.140Z,99.90
2022-11-28T14:16:17.705Z,99.90
2022-11-28T14:19:01.391Z,99.90
2022-11-28T14:21:38.642Z,99.90
2022-11-28T14:24:11.828Z,99.90
2022-11-28T14:26:42.935Z,99.90
2022-11-28T14:29:20.933Z,99.90
2022-11-28T14:32:13.602Z,99.90
2022-11-28T14:34:40.358Z,99.90
2022-11-28T14:37:57.787Z,99.90
2022-11-28T14:41:04.748Z,99.90
2022-11-28T14:43:33.905Z,99.90
2022-11-28T14:46:27.469Z,99.90
2022-11-28T14:49:20.329Z,99.90
2022-11-28T14:52:37.051Z,99.90
2022-11-28T14:54:57.488Z,99.90
2022-11-28T14:57:27.787Z,99.90
2022-11-28T14:59:56.282Z,99.90
2022-11-28T15:02:39.415Z,99.90
2022-11-28T15:05:31.011Z,99.90
2022-11-28T15:08:10.521Z,1.00
2022-11-28T15:10:43.299Z,1.00
2022-11-28T15:13:29.568Z,1.00
2022-11-28T15:15:57.704Z,1.00
2022-11-28T15:18:26.254Z,99.90
2022-11-28T15:20:58.654Z,99.90
2022-11-28T15:23:30.991Z,99.90
2022-11-28T15:25:59.498Z,99.90
2022-11-28T15:28:28.993Z,99.90
2022-11-28T15:30:57.996Z,99.90
2022-11-28T15:33:26.567Z,1.00
2022-11-28T15:35:57.462Z,1.00
2022-11-28T15:38:27.059Z,99.90
2022-11-28T15:40:55.346Z,99.90
2022-11-28T15:43:23.572Z,1.00
2022-11-28T15:45:51.709Z,1.00
2022-11-28T15:48:27.657Z,1.00
2022-11-28T15:50:55.752Z,1.00
2022-11-28T15:53:23.946Z,1.00
2022-11-28T15:56:11.705Z,1.00
2022-11-28T15:58:40.155Z,1.00
2022-11-28T16:01:11.666Z,1.00
2022-11-28T16:03:44.945Z,1.00
2022-11-28T16:06:13.030Z,1.00
2022-11-28T16:08:42.127Z,1.00
2022-11-28T16:11:11.651Z,1.00
2022-11-28T16:13:39.891Z,1.00
2022-11-28T16:16:10.630Z,1.00
2022-11-28T16:18:38.889Z,10.70
2022-11-28T16:21:07.176Z,67.90
2022-11-28T16:23:36.102Z,99.90
2022-11-28T16:26:04.921Z,44.50
2022-11-28T16:28:35.893Z,99.90
2022-11-28T16:31:04.115Z,99.90
2022-11-28T16:33:39.714Z,99.90
2022-11-28T16:36:19.245Z,99.90
2022-11-28T16:38:48.338Z,99.90
2022-11-28T16:41:18.072Z,99.90
2022-11-28T16:43:50.491Z,99.90
2022-11-28T16:46:21.319Z,99.90
2022-11-28T16:48:50.357Z,99.90
2022-11-28T16:51:32.714Z,1.00
2022-11-28T16:54:01.259Z,1.00
2022-11-28T16:56:43.958Z,1.00
2022-11-28T16:59:16.255Z,1.00
2022-11-28T17:01:45.068Z,1.00
2022-11-28T17:04:20.769Z,1.00
2022-11-28T17:06:48.888Z,1.00
2022-11-28T17:09:17.002Z,1.00
2022-11-28T17:11:46.389Z,1.00
2022-11-28T17:14:15.831Z,1.00
2022-11-28T17:16:44.004Z,1.00
2022-11-28T17:19:12.176Z,1.00
2022-11-28T17:21:41.565Z,1.00
2022-11-28T17:24:15.264Z,99.90
2022-11-28T17:26:43.662Z,1.00
2022-11-28T17:29:11.972Z,99.90
2022-11-28T17:31:42.317Z,99.90
2022-11-28T17:34:16.226Z,99.90
2022-11-28T17:36:44.516Z,99.90
2022-11-28T17:39:12.726Z,99.90
2022-11-28T17:41:40.893Z,99.90
2022-11-28T17:44:11.349Z,99.90
2022-11-28T17:46:39.506Z,99.90
2022-11-28T17:49:09.007Z,99.90
2022-11-28T17:51:37.155Z,99.90
2022-11-28T17:54:05.485Z,99.90
2022-11-28T17:56:33.651Z,99.90
2022-11-28T17:59:01.816Z,99.90
2022-11-28T18:01:30.581Z,99.90
2022-11-28T18:03:58.973Z,99.90
2022-11-28T18:06:28.454Z,99.90
2022-11-28T18:08:56.579Z,99.90
2022-11-28T18:11:24.657Z,99.90
2022-11-28T18:13:52.734Z,99.90
2022-11-28T18:16:22.760Z,84.50
2022-11-28T18:18:50.964Z,99.90
2022-11-28T18:21:19.032Z,99.90
2022-11-28T18:23:50.674Z,99.90
2022-11-28T18:26:19.604Z,99.90
2022-11-28T18:28:47.861Z,85.80
2022-11-28T18:31:17.100Z,99.90
2022-11-28T18:33:46.669Z,99.90
2022-11-28T18:36:15.797Z,99.90
2022-11-28T18:38:45.155Z,99.90
2022-11-28T18:41:15.245Z,99.90
2022-11-28T18:43:44.039Z,1.00
2022-11-28T18:46:14.921Z,1.00
2022-11-28T18:48:43.793Z,1.00
2022-11-28T18:51:13.176Z,99.90
2022-11-28T18:53:41.440Z,1.00
2022-11-28T18:56:09.689Z,1.00
2022-11-28T18:58:40.524Z,99.90
2022-11-28T19:01:11.863Z,1.00
2022-11-28T19:03:40.008Z,1.00
2022-11-28T19:06:08.374Z,1.00
2022-11-28T19:08:36.530Z,37.90
2022-11-28T19:11:06.759Z,1.00
2022-11-28T19:13:35.321Z,1.00
2022-11-28T19:16:07.666Z,1.00
2022-11-28T19:18:36.565Z,53.00
2022-11-28T19:21:06.110Z,99.90
2022-11-28T19:23:34.184Z,99.90
2022-11-28T19:26:03.802Z,31.30
2022-11-28T19:28:32.206Z,99.90
2022-11-28T19:31:07.724Z,99.90
2022-11-28T19:33:35.906Z,99.90
2022-11-28T19:36:03.971Z,1.00
2022-11-28T19:38:32.157Z,99.90
2022-11-28T19:41:00.285Z,99.90
2022-11-28T19:43:28.380Z,99.90
2022-11-28T19:45:56.693Z,99.90
2022-11-28T19:48:26.851Z,99.90
2022-11-28T19:50:55.084Z,99.90
2022-11-28T19:53:23.341Z,99.90
2022-11-28T19:55:51.451Z,1.00
2022-11-28T19:58:19.848Z,1.00
2022-11-28T20:00:47.923Z,99.90
2022-11-28T20:03:16.128Z,1.00
2022-11-28T20:05:45.664Z,1.00
2022-11-28T20:08:13.904Z,1.00
2022-11-28T20:10:42.006Z,1.00
2022-11-28T20:13:10.146Z,1.00
2022-11-28T20:15:38.351Z,99.90
2022-11-28T20:18:06.756Z,1.00
2022-11-28T20:20:35.040Z,1.00
2022-11-28T20:23:04.583Z,5.10
2022-11-28T20:25:33.315Z,1.00
2022-11-28T20:28:01.561Z,1.00
2022-11-28T20:30:29.745Z,1.00
2022-11-28T20:32:57.912Z,99.90
2022-11-28T20:35:27.303Z,1.00
2022-11-28T20:37:55.456Z,6.30
2022-11-28T20:40:25.255Z,7.40
2022-11-28T20:42:53.385Z,1.00
2022-11-28T20:45:21.557Z,99.90
2022-11-28T20:47:50.186Z,99.90
2022-11-28T20:50:18.530Z,99.90
2022-11-28T20:52:46.735Z,46.40
2022-11-28T20:55:14.885Z,99.90
2022-11-28T20:57:44.435Z,99.90
2022-11-28T21:00:13.803Z,99.90
2022-11-28T21:02:42.047Z,92.40
2022-11-28T21:05:10.855Z,99.90
2022-11-28T21:07:39.158Z,99.90
2022-11-28T21:10:08.139Z,99.90
2022-11-28T21:12:36.351Z,99.90
2022-11-28T21:15:06.833Z,99.90
2022-11-28T21:17:35.202Z,99.90
2022-11-28T21:20:03.395Z,99.90
2022-11-28T21:22:31.885Z,99.90
2022-11-28T21:24:59.951Z,99.90
2022-11-28T21:27:28.215Z,1.00
2022-11-28T21:29:56.356Z,99.90
2022-11-28T21:32:25.959Z,1.00
2022-11-28T21:34:55.638Z,1.00
2022-11-28T21:37:24.596Z,99.90
2022-11-28T21:39:52.658Z,99.90
2022-11-28T21:42:21.034Z,99.90
2022-11-28T21:44:49.210Z,99.90
2022-11-28T21:47:17.391Z,99.90
2022-11-28T21:49:47.051Z,99.90
2022-11-28T21:52:16.859Z,99.90
2022-11-28T21:54:44.916Z,99.90
2022-11-28T21:57:13.039Z,99.90
2022-11-28T21:59:41.196Z,99.90
2022-11-28T22:02:11.856Z,99.90
2022-11-28T22:04:40.020Z,99.90
2022-11-28T22:07:09.660Z,99.90
2022-11-28T22:09:37.723Z,99.90
2022-11-28T22:12:06.513Z,99.90
2022-11-28T22:14:36.769Z,1.00
2022-11-28T22:17:05.185Z,1.00
2022-11-28T22:19:33.285Z,99.90
2022-11-28T22:22:01.418Z,1.00
2022-11-28T22:24:30.885Z,99.90
2022-11-28T22:26:59.774Z,1.00
2022-11-28T22:29:27.945Z,1.00
2022-11-28T22:31:56.243Z,99.90
2022-11-28T22:34:24.385Z,1.00
2022-11-28T22:36:52.434Z,1.00
2022-11-28T22:39:20.603Z,1.00
2022-11-28T22:41:50.026Z,1.00
2022-11-28T22:44:18.146Z,99.90
2022-11-28T22:46:46.181Z,99.90
2022-11-28T22:49:14.233Z,1.00
2022-11-28T22:51:42.300Z,1.00
2022-11-28T22:54:12.263Z,1.00
2022-11-28T22:56:41.115Z,1.00
2022-11-28T22:59:13.608Z,99.90
2022-11-28T23:01:41.839Z,1.00
2022-11-28T23:04:10.344Z,1.00
2022-11-28T23:06:38.425Z,1.00
2022-11-28T23:09:07.758Z,99.90
2022-11-28T23:11:37.007Z,99.90
2022-11-28T23:14:05.181Z,1.00
2022-11-28T23:16:35.851Z,1.00
2022-11-28T23:19:05.206Z,1.00
2022-11-28T23:21:33.986Z,1.00
2022-11-28T23:24:02.102Z,17.10
2022-11-28T23:26:31.165Z,1.00
2022-11-28T23:28:59.888Z,1.00
2022-11-28T23:31:29.315Z,1.00
2022-11-28T23:33:59.101Z,1.00
2022-11-28T23:36:27.846Z,77.70
2022-11-28T23:38:56.714Z,1.00
2022-11-28T23:41:24.855Z,1.00
2022-11-28T23:43:52.910Z,1.00
2022-11-28T23:46:23.298Z,1.00
2022-11-28T23:48:51.347Z,1.00
2022-11-28T23:51:21.411Z,1.00
2022-11-28T23:53:49.902Z,1.00
2022-11-28T23:56:19.822Z,1.00
2022-11-28T23:58:47.946Z,1.00
